createdAt,value
2019-06-07T00:00:50.691Z,18.20
2019-06-07T00:03:28.955Z,18.20
2019-06-07T00:05:49.326Z,18.20
2019-06-07T00:08:24.741Z,18.10
2019-06-07T00:10:48.241Z,18.10
2019-06-07T00:13:18.758Z,18.10
2019-06-07T00:15:46.862Z,18.10
2019-06-07T00:18:23.546Z,18.10
2019-06-07T00:20:45.446Z,18.10
2019-06-07T00:23:19.676Z,18.00
2019-06-07T00:25:44.540Z,18.10
2019-06-07T00:28:13.388Z,18.20
2019-06-07T00:30:51.705Z,18.00
2019-06-07T00:33:17.366Z,18.00
2019-06-07T00:35:44.266Z,18.00
2019-06-07T00:38:14.215Z,18.10
2019-06-07T00:40:42.818Z,18.20
2019-06-07T00:43:15.163Z,18.20
2019-06-07T00:45:41.426Z,18.10
2019-06-07T00:48:16.154Z,18.20
2019-06-07T00:50:40.116Z,18.30
2019-06-07T00:53:17.171Z,18.40
2019-06-07T00:55:38.714Z,18.30
2019-06-07T00:58:07.310Z,18.30
2019-06-07T01:00:35.818Z,18.30
2019-06-07T01:03:04.273Z,18.40
2019-06-07T01:05:32.867Z,18.40
2019-06-07T01:08:03.924Z,18.40
2019-06-07T01:10:52.315Z,18.30
2019-06-07T01:13:03.169Z,18.20
2019-06-07T01:15:31.633Z,18.20
2019-06-07T01:18:33.643Z,18.20
2019-06-07T01:20:30.724Z,18.10
2019-06-07T01:22:59.229Z,18.10
2019-06-07T01:25:29.071Z,18.10
2019-06-07T01:27:57.746Z,18.20
2019-06-07T01:30:29.065Z,18.30
2019-06-07T01:32:57.293Z,18.30
2019-06-07T01:35:25.842Z,18.10
2019-06-07T01:37:54.274Z,18.20
2019-06-07T01:40:28.841Z,18.20
2019-06-07T01:42:53.167Z,18.20
2019-06-07T01:45:23.464Z,18.10
2019-06-07T01:47:51.910Z,18.10
2019-06-07T01:50:23.281Z,18.20
2019-06-07T01:52:50.905Z,18.20
2019-06-07T01:55:23.097Z,18.30
2019-06-07T01:57:49.652Z,18.40
2019-06-07T02:00:21.640Z,18.50
2019-06-07T02:02:49.961Z,18.50
2019-06-07T02:05:20.664Z,18.30
2019-06-07T02:07:48.791Z,18.10
2019-06-07T02:10:19.685Z,18.00
2019-06-07T02:12:47.949Z,18.00
2019-06-07T02:15:17.292Z,18.10
2019-06-07T02:17:46.005Z,18.30
2019-06-07T02:20:14.933Z,18.20
2019-06-07T02:22:43.378Z,18.10
2019-06-07T02:27:42.061Z,18.00
2019-06-07T02:30:36.947Z,18.10
2019-06-07T02:32:41.146Z,18.00
2019-06-07T02:35:09.768Z,18.00
2019-06-07T02:37:38.278Z,17.90
2019-06-07T02:40:07.759Z,17.90
2019-06-07T02:42:42.169Z,17.90
2019-06-07T02:45:07.283Z,17.80
2019-06-07T02:47:37.974Z,17.90
2019-06-07T02:50:11.710Z,17.90
2019-06-07T02:52:41.616Z,17.90
2019-06-07T02:55:11.423Z,17.80
2019-06-07T02:57:42.351Z,17.80
2019-06-07T03:00:51.391Z,17.80
2019-06-07T03:02:43.309Z,17.70
2019-06-07T03:05:12.025Z,17.60
2019-06-07T03:07:45.351Z,17.50
2019-06-07T03:10:12.995Z,17.70
2019-06-07T03:12:43.786Z,17.60
2019-06-07T03:15:30.126Z,17.60
2019-06-07T03:17:50.694Z,17.60
2019-06-07T03:20:20.837Z,17.70
2019-06-07T03:22:51.498Z,17.70
2019-06-07T03:25:19.935Z,17.60
2019-06-07T03:27:50.473Z,17.60
2019-06-07T03:32:49.496Z,17.70
2019-06-07T03:35:17.997Z,17.70
2019-06-07T03:37:46.447Z,17.70
2019-06-07T03:40:15.346Z,17.70
2019-06-07T03:42:44.162Z,17.70
2019-06-07T03:45:12.873Z,17.70
2019-06-07T03:47:42.596Z,17.70
2019-06-07T03:50:12.341Z,17.60
2019-06-07T03:52:41.917Z,17.60
2019-06-07T03:55:10.909Z,17.70
2019-06-07T03:58:29.081Z,17.70
2019-06-07T04:00:13.138Z,17.70
2019-06-07T04:02:42.308Z,17.70
2019-06-07T04:05:11.650Z,17.70
2019-06-07T04:07:44.110Z,17.70
2019-06-07T04:10:10.474Z,17.70
2019-06-07T04:12:43.494Z,17.80
2019-06-07T04:15:09.463Z,17.90
2019-06-07T04:17:44.550Z,17.90
2019-06-07T04:20:09.331Z,17.80
2019-06-07T04:22:40.489Z,17.80
2019-06-07T04:25:11.426Z,17.80
2019-06-07T04:27:41.234Z,17.80
2019-06-07T04:30:10.974Z,17.90
2019-06-07T04:32:44.722Z,17.90
2019-06-07T04:35:10.531Z,18.00
2019-06-07T04:37:41.622Z,18.00
2019-06-07T04:40:11.185Z,18.10
2019-06-07T04:42:45.386Z,18.00
2019-06-07T04:45:32.975Z,17.90
2019-06-07T04:47:44.512Z,18.00
2019-06-07T04:50:13.541Z,18.00
2019-06-07T04:52:45.182Z,18.10
2019-06-07T04:55:12.348Z,18.10
2019-06-07T04:57:43.177Z,18.10
2019-06-07T05:00:46.250Z,17.90
2019-06-07T05:02:43.397Z,17.90
2019-06-07T05:05:12.797Z,18.00
2019-06-07T05:07:45.941Z,17.90
2019-06-07T05:10:11.564Z,17.80
2019-06-07T05:12:43.962Z,17.80
2019-06-07T05:15:10.748Z,18.00
2019-06-07T05:17:42.449Z,18.50
2019-06-07T05:20:10.143Z,18.50
2019-06-07T05:22:42.606Z,18.50
2019-06-07T05:25:09.884Z,18.40
2019-06-07T05:27:41.628Z,18.30
2019-06-07T05:30:36.504Z,18.20
2019-06-07T05:32:45.455Z,18.20
2019-06-07T05:35:11.093Z,18.10
2019-06-07T05:37:41.820Z,18.20
2019-06-07T05:40:11.915Z,18.20
2019-06-07T05:42:44.042Z,18.20
2019-06-07T05:45:11.465Z,18.20
2019-06-07T05:47:50.622Z,18.40
2019-06-07T05:50:38.458Z,18.50
2019-06-07T05:52:47.523Z,18.40
2019-06-07T05:55:15.683Z,18.50
2019-06-07T05:57:49.155Z,18.40
2019-06-07T06:00:14.391Z,18.40
2019-06-07T06:03:00.180Z,18.40
2019-06-07T06:05:32.332Z,18.40
2019-06-07T06:07:49.911Z,18.70
2019-06-07T06:10:14.138Z,18.50
2019-06-07T06:12:49.971Z,18.40
2019-06-07T06:15:13.071Z,18.30
2019-06-07T06:17:46.054Z,18.20
2019-06-07T06:20:15.347Z,18.20
2019-06-07T06:22:53.309Z,18.60
2019-06-07T06:25:32.653Z,18.70
2019-06-07T06:28:11.012Z,18.50
2019-06-07T06:30:34.378Z,18.60
2019-06-07T06:33:05.192Z,18.60
2019-06-07T06:35:37.850Z,18.60
2019-06-07T06:38:08.142Z,18.30
2019-06-07T06:41:13.871Z,18.30
2019-06-07T06:43:26.999Z,18.40
2019-06-07T06:45:58.487Z,18.30
2019-06-07T06:48:45.522Z,18.20
2019-06-07T06:51:15.754Z,18.10
2019-06-07T06:53:55.701Z,18.20
2019-06-07T06:56:29.398Z,18.30
2019-06-07T06:59:35.246Z,18.40
2019-06-07T07:01:36.101Z,18.30
2019-06-07T07:04:12.336Z,18.40
2019-06-07T07:06:34.293Z,18.40
2019-06-07T07:09:03.211Z,18.30
2019-06-07T07:11:31.988Z,18.20
2019-06-07T07:14:01.183Z,18.20
2019-06-07T07:16:29.641Z,18.40
2019-06-07T07:18:58.078Z,18.20
2019-06-07T07:21:26.597Z,18.10
2019-06-07T07:24:19.235Z,18.10
2019-06-07T07:28:51.813Z,18.30
2019-06-07T07:31:19.283Z,18.70
2019-06-07T07:36:35.628Z,19.00
2019-06-07T07:38:55.071Z,18.90
2019-06-07T07:41:18.971Z,18.80
2019-06-07T07:43:52.903Z,18.70
2019-06-07T07:46:29.109Z,18.60
2019-06-07T07:48:48.559Z,19.30
2019-06-07T07:51:17.238Z,19.70
2019-06-07T07:53:55.992Z,19.20
2019-06-07T07:56:16.206Z,18.90
2019-06-07T07:58:48.582Z,18.60
2019-06-07T08:01:14.995Z,18.60
2019-06-07T08:03:43.814Z,18.50
2019-06-07T08:06:12.518Z,18.60
2019-06-07T08:08:40.968Z,18.50
2019-06-07T08:11:09.474Z,18.60
2019-06-07T08:13:37.956Z,18.60
2019-06-07T08:16:12.446Z,18.70
2019-06-07T08:18:36.702Z,19.30
2019-06-07T08:21:23.118Z,19.60
2019-06-07T08:23:35.420Z,19.90
2019-06-07T08:26:04.238Z,19.60
2019-06-07T08:28:32.691Z,19.30
2019-06-07T08:31:06.929Z,19.10
2019-06-07T08:33:31.506Z,19.40
2019-06-07T08:36:12.009Z,19.10
2019-06-07T08:38:46.991Z,19.50
2019-06-07T08:41:10.963Z,19.60
2019-06-07T08:43:31.086Z,19.40
2019-06-07T08:46:04.346Z,19.20
2019-06-07T08:48:30.412Z,19.30
2019-06-07T08:51:06.316Z,19.10
2019-06-07T08:53:29.258Z,19.30
2019-06-07T08:56:01.768Z,19.70
2019-06-07T08:58:27.983Z,20.00
2019-06-07T09:01:03.654Z,20.10
2019-06-07T09:03:26.670Z,19.80
2019-06-07T09:05:57.203Z,19.40
2019-06-07T09:08:30.533Z,19.30
2019-06-07T09:10:57.048Z,19.40
2019-06-07T09:13:26.359Z,19.80
2019-06-07T09:15:55.982Z,19.80
2019-06-07T09:20:57.463Z,20.00
2019-06-07T09:23:25.941Z,19.80
2019-06-07T09:26:05.215Z,19.70
2019-06-07T09:28:26.052Z,19.80
2019-06-07T09:30:57.029Z,19.70
2019-06-07T09:33:24.658Z,19.50
2019-06-07T09:35:53.172Z,19.70
2019-06-07T09:38:26.443Z,19.70
2019-06-07T09:40:52.093Z,19.80
2019-06-07T09:45:50.952Z,20.00
2019-06-07T09:49:01.318Z,20.10
2019-06-07T09:50:49.905Z,20.00
2019-06-07T09:53:22.345Z,20.00
2019-06-07T09:55:48.909Z,19.80
2019-06-07T09:58:50.500Z,19.80
2019-06-07T10:00:47.525Z,19.90
2019-06-07T10:03:21.135Z,19.70
2019-06-07T10:05:46.220Z,19.90
2019-06-07T10:09:01.080Z,19.70
2019-06-07T10:10:45.095Z,19.70
2019-06-07T10:13:13.559Z,19.70
2019-06-07T10:15:42.221Z,19.80
2019-06-07T10:18:10.686Z,19.80
2019-06-07T10:20:39.448Z,19.90
2019-06-07T10:23:08.337Z,19.90
2019-06-07T10:25:38.418Z,19.80
2019-06-07T10:28:08.263Z,19.80
2019-06-07T10:30:37.155Z,19.80
2019-06-07T10:33:06.937Z,19.80
2019-06-07T10:35:35.534Z,19.90
2019-06-07T10:38:04.583Z,20.20
2019-06-07T10:40:33.326Z,20.10
2019-06-07T10:43:02.935Z,20.20
2019-06-07T10:45:31.940Z,20.10
2019-06-07T10:48:01.533Z,20.00
2019-06-07T10:50:30.084Z,19.90
2019-06-07T10:52:58.514Z,20.10
2019-06-07T10:55:26.971Z,20.20
2019-06-07T10:57:55.462Z,20.20
2019-06-07T11:00:26.020Z,20.10
2019-06-07T11:02:55.369Z,20.00
2019-06-07T11:05:24.407Z,20.00
2019-06-07T11:07:52.896Z,20.20
2019-06-07T11:10:22.184Z,20.20
2019-06-07T11:12:50.697Z,20.30
2019-06-07T11:15:19.195Z,20.20
2019-06-07T11:17:47.695Z,20.10
2019-06-07T11:20:18.511Z,20.00
2019-06-07T11:22:47.268Z,20.00
2019-06-07T11:25:16.149Z,19.90
2019-06-07T11:27:44.569Z,19.90
2019-06-07T11:30:14.818Z,20.00
2019-06-07T11:32:43.322Z,20.00
2019-06-07T11:35:15.341Z,20.10
2019-06-07T11:37:43.978Z,20.20
2019-06-07T11:40:32.003Z,20.20
2019-06-07T11:42:44.778Z,20.20
2019-06-07T11:45:15.220Z,20.30
2019-06-07T11:47:43.887Z,20.20
2019-06-07T11:50:13.775Z,20.20
2019-06-07T11:52:45.971Z,20.10
2019-06-07T11:55:13.484Z,20.10
2019-06-07T11:57:43.136Z,20.10
2019-06-07T12:00:14.649Z,20.20
2019-06-07T12:02:44.156Z,20.10
2019-06-07T12:05:16.597Z,20.10
2019-06-07T12:07:43.165Z,20.20
2019-06-07T12:10:12.651Z,20.20
2019-06-07T12:12:41.178Z,20.30
2019-06-07T12:15:11.115Z,20.30
2019-06-07T12:17:43.977Z,20.20
2019-06-07T12:20:14.800Z,20.20
2019-06-07T12:22:43.312Z,20.10
2019-06-07T12:25:16.116Z,20.20
2019-06-07T12:27:43.030Z,20.20
2019-06-07T12:30:20.769Z,20.30
2019-06-07T12:32:43.247Z,20.20
2019-06-07T12:35:13.533Z,20.20
2019-06-07T12:37:44.882Z,20.30
2019-06-07T12:40:26.047Z,20.50
2019-06-07T12:42:45.145Z,20.50
2019-06-07T12:45:23.213Z,20.50
2019-06-07T12:47:44.105Z,20.40
2019-06-07T12:50:13.514Z,20.40
2019-06-07T12:52:42.120Z,20.40
2019-06-07T12:55:11.143Z,20.30
2019-06-07T12:57:39.622Z,20.20
2019-06-07T13:00:13.950Z,20.40
2019-06-07T13:02:42.714Z,20.40
2019-06-07T13:05:11.530Z,20.60
2019-06-07T13:07:40.033Z,20.50
2019-06-07T13:10:09.429Z,20.30
2019-06-07T13:12:38.010Z,20.30
2019-06-07T13:15:07.290Z,20.30
2019-06-07T13:17:36.494Z,20.30
2019-06-07T13:20:07.318Z,20.40
2019-06-07T13:22:35.746Z,20.60
2019-06-07T13:25:05.834Z,20.50
2019-06-07T13:27:34.605Z,20.50
2019-06-07T13:30:09.548Z,20.40
2019-06-07T13:32:34.187Z,20.30
2019-06-07T13:35:02.743Z,20.40
2019-06-07T13:37:31.213Z,20.40
2019-06-07T13:39:59.696Z,20.40
2019-06-07T13:42:28.634Z,20.40
2019-06-07T13:44:57.243Z,20.40
2019-06-07T13:47:25.691Z,20.40
2019-06-07T13:49:55.393Z,20.50
2019-06-07T13:52:24.043Z,20.50
2019-06-07T13:54:52.571Z,20.50
2019-06-07T13:57:22.201Z,20.40
2019-06-07T13:59:51.221Z,20.40
2019-06-07T14:02:20.778Z,20.30
2019-06-07T14:04:49.620Z,20.30
2019-06-07T14:07:19.006Z,20.40
2019-06-07T14:09:47.822Z,20.50
2019-06-07T14:12:16.598Z,20.50
2019-06-07T14:14:45.089Z,20.50
2019-06-07T14:17:13.524Z,20.70
2019-06-07T14:19:41.969Z,20.60
2019-06-07T14:22:10.471Z,20.60
2019-06-07T14:24:38.944Z,20.70
2019-06-07T14:27:07.442Z,20.70
2019-06-07T14:29:38.934Z,20.60
2019-06-07T14:32:08.627Z,20.60
2019-06-07T14:34:37.199Z,20.60
2019-06-07T14:37:06.180Z,20.60
2019-06-07T14:39:34.638Z,20.50
2019-06-07T14:42:08.956Z,20.40
2019-06-07T14:44:33.909Z,20.40
2019-06-07T14:47:02.882Z,20.60
2019-06-07T14:49:32.734Z,20.60
2019-06-07T14:52:01.314Z,20.50
2019-06-07T14:54:32.257Z,20.40
2019-06-07T14:57:03.014Z,20.40
2019-06-07T14:59:30.508Z,20.40
2019-06-07T15:01:59.400Z,20.40
2019-06-07T15:04:28.553Z,20.60
2019-06-07T15:06:57.423Z,20.60
2019-06-07T15:09:26.921Z,20.50
2019-06-07T15:11:56.055Z,20.50
2019-06-07T15:14:24.819Z,20.40
2019-06-07T15:16:54.269Z,20.40
2019-06-07T15:19:24.170Z,20.40
2019-06-07T15:21:52.933Z,20.40
2019-06-07T15:24:21.427Z,20.40
2019-06-07T15:26:50.031Z,20.50
2019-06-07T15:29:18.491Z,20.50
2019-06-07T15:31:47.059Z,20.50
2019-06-07T15:34:15.505Z,20.40
2019-06-07T15:36:43.945Z,20.50
2019-06-07T15:39:12.450Z,20.40
2019-06-07T15:41:40.906Z,20.40
2019-06-07T15:44:09.660Z,20.40
2019-06-07T15:46:38.181Z,20.40
2019-06-07T15:49:06.701Z,20.40
2019-06-07T15:51:36.507Z,20.40
2019-06-07T15:54:06.856Z,20.50
2019-06-07T15:56:36.785Z,20.50
2019-06-07T15:59:05.565Z,20.60
2019-06-07T16:01:35.457Z,20.70
2019-06-07T16:04:04.843Z,20.60
2019-06-07T16:06:38.168Z,20.50
2019-06-07T16:09:08.034Z,20.80
2019-06-07T16:11:37.080Z,20.70
2019-06-07T16:14:06.420Z,20.60
2019-06-07T16:16:35.135Z,20.70
2019-06-07T16:19:03.789Z,20.70
2019-06-07T16:21:33.259Z,20.60
2019-06-07T16:24:01.941Z,20.60
2019-06-07T16:26:30.733Z,20.60
2019-06-07T16:28:59.197Z,20.60
2019-06-07T16:31:30.026Z,20.50
2019-06-07T16:33:58.481Z,20.50
2019-06-07T16:36:26.922Z,20.50
2019-06-07T16:38:55.366Z,20.40
2019-06-07T16:41:23.805Z,20.50
2019-06-07T16:43:56.600Z,20.40
2019-06-07T16:46:30.571Z,20.50
2019-06-07T16:48:59.096Z,20.40
2019-06-07T16:51:27.816Z,20.40
2019-06-07T16:53:56.317Z,20.40
2019-06-07T16:56:26.338Z,20.30
2019-06-07T16:58:55.052Z,20.30
2019-06-07T17:01:23.539Z,20.30
2019-06-07T17:03:52.051Z,20.30
2019-06-07T17:06:20.679Z,20.40
2019-06-07T17:08:49.256Z,20.30
2019-06-07T17:11:17.775Z,20.30
2019-06-07T17:13:46.551Z,20.30
2019-06-07T17:16:15.105Z,20.30
2019-06-07T17:18:45.082Z,20.30
2019-06-07T17:21:14.045Z,20.30
2019-06-07T17:23:43.717Z,20.30
2019-06-07T17:26:12.320Z,20.30
2019-06-07T17:28:41.755Z,20.30
2019-06-07T17:31:10.462Z,20.30
2019-06-07T17:33:39.802Z,20.30
2019-06-07T17:36:08.312Z,20.30
2019-06-07T17:38:36.886Z,20.30
2019-06-07T17:41:05.371Z,20.30
2019-06-07T17:43:48.436Z,20.30
2019-06-07T17:46:04.126Z,20.30
2019-06-07T17:48:32.883Z,20.30
2019-06-07T17:51:01.355Z,20.30
2019-06-07T17:53:30.590Z,20.20
2019-06-07T17:55:59.248Z,20.20
2019-06-07T17:58:27.752Z,20.30
2019-06-07T18:00:56.271Z,20.20
2019-06-07T18:03:25.080Z,20.30
2019-06-07T18:05:54.117Z,20.30
2019-06-07T18:08:24.521Z,20.20
2019-06-07T18:10:54.195Z,20.30
2019-06-07T18:13:22.911Z,20.20
2019-06-07T18:15:55.527Z,20.30
2019-06-07T18:18:21.758Z,20.20
2019-06-07T18:20:51.747Z,20.30
2019-06-07T18:23:20.357Z,20.30
2019-06-07T18:25:48.916Z,20.30
2019-06-07T18:28:17.453Z,20.20
2019-06-07T18:30:46.534Z,20.30
2019-06-07T18:33:15.180Z,20.30
2019-06-07T18:35:43.684Z,20.20
2019-06-07T18:38:12.221Z,20.30
2019-06-07T18:40:42.008Z,20.30
2019-06-07T18:43:10.666Z,20.20
2019-06-07T18:45:39.185Z,20.30
2019-06-07T18:48:07.696Z,20.30
2019-06-07T18:50:36.515Z,20.30
2019-06-07T18:53:05.197Z,20.30
2019-06-07T18:55:33.843Z,20.30
2019-06-07T18:58:02.292Z,20.30
2019-06-07T19:00:32.780Z,20.30
2019-06-07T19:03:02.051Z,20.30
2019-06-07T19:05:30.703Z,20.20
2019-06-07T19:07:59.844Z,20.20
2019-06-07T19:10:28.852Z,20.30
2019-06-07T19:12:57.472Z,20.30
2019-06-07T19:15:27.303Z,20.30
2019-06-07T19:17:58.131Z,20.30
2019-06-07T19:20:26.946Z,20.30
2019-06-07T19:22:56.513Z,20.30
2019-06-07T19:25:25.232Z,20.30
2019-06-07T19:27:56.884Z,20.30
2019-06-07T19:30:25.733Z,20.30
2019-06-07T19:32:55.061Z,20.30
2019-06-07T19:35:23.845Z,20.30
2019-06-07T19:37:53.642Z,20.30
2019-06-07T19:40:25.092Z,20.30
2019-06-07T19:42:54.100Z,20.30
2019-06-07T19:45:30.543Z,20.30
2019-06-07T19:47:54.513Z,20.30
2019-06-07T19:50:23.093Z,20.30
2019-06-07T19:52:53.055Z,20.30
2019-06-07T19:55:21.674Z,20.20
2019-06-07T19:57:55.495Z,20.20
2019-06-07T20:00:20.702Z,20.20
2019-06-07T20:02:49.744Z,20.20
2019-06-07T20:05:18.593Z,20.20
2019-06-07T20:07:47.209Z,20.20
2019-06-07T20:10:19.250Z,20.20
2019-06-07T20:12:48.183Z,20.20
2019-06-07T20:15:28.559Z,20.20
2019-06-07T20:17:47.311Z,20.10
2019-06-07T20:20:16.255Z,20.10
2019-06-07T20:22:45.113Z,20.20
2019-06-07T20:25:15.806Z,20.10
2019-06-07T20:27:49.662Z,20.10
2019-06-07T20:30:18.356Z,20.10
2019-06-07T20:32:46.866Z,20.20
2019-06-07T20:35:15.506Z,20.20
2019-06-07T20:37:43.943Z,20.10
2019-06-07T20:40:23.296Z,20.20
2019-06-07T20:42:43.377Z,20.10
2019-06-07T20:45:13.323Z,20.10
2019-06-07T20:47:41.826Z,20.20
2019-06-07T20:50:11.007Z,20.20
2019-06-07T20:52:39.461Z,20.20
2019-06-07T20:55:09.389Z,20.10
2019-06-07T20:57:38.279Z,20.20
2019-06-07T21:00:14.245Z,20.20
2019-06-07T21:02:39.481Z,20.20
2019-06-07T21:05:09.577Z,20.20
2019-06-07T21:07:38.756Z,20.20
2019-06-07T21:10:08.408Z,20.20
2019-06-07T21:12:37.197Z,20.10
2019-06-07T21:15:10.795Z,20.10
2019-06-07T21:17:37.153Z,20.20
2019-06-07T21:20:08.053Z,20.10
2019-06-07T21:22:36.805Z,19.90
2019-06-07T21:25:09.452Z,19.90
2019-06-07T21:27:38.309Z,19.80
2019-06-07T21:30:09.653Z,19.80
2019-06-07T21:32:38.258Z,19.80
2019-06-07T21:35:09.991Z,19.70
2019-06-07T21:37:38.739Z,19.70
2019-06-07T21:40:08.187Z,19.70
2019-06-07T21:42:36.964Z,19.80
2019-06-07T21:45:09.863Z,19.70
2019-06-07T21:47:39.129Z,19.70
2019-06-07T21:50:10.830Z,19.60
2019-06-07T21:52:39.624Z,19.70
2019-06-07T21:55:09.298Z,19.60
2019-06-07T21:57:38.192Z,19.70
2019-06-07T22:00:11.556Z,19.70
2019-06-07T22:02:40.431Z,19.70
2019-06-07T22:05:09.816Z,19.70
2019-06-07T22:07:38.430Z,19.60
2019-06-07T22:10:08.111Z,19.60
2019-06-07T22:12:36.722Z,19.60
2019-06-07T22:15:24.558Z,19.50
2019-06-07T22:17:40.091Z,19.50
2019-06-07T22:20:09.136Z,19.40
2019-06-07T22:22:37.933Z,19.40
2019-06-07T22:25:09.002Z,19.40
2019-06-07T22:27:37.778Z,19.40
2019-06-07T22:30:08.278Z,19.30
2019-06-07T22:32:37.407Z,19.20
2019-06-07T22:35:06.731Z,19.20
2019-06-07T22:37:35.386Z,19.20
2019-06-07T22:40:08.494Z,19.20
2019-06-07T22:42:37.637Z,19.30
2019-06-07T22:45:08.145Z,19.30
2019-06-07T22:47:36.771Z,19.20
2019-06-07T22:50:10.715Z,19.20
2019-06-07T22:52:39.459Z,19.30
2019-06-07T22:55:10.159Z,19.30
2019-06-07T22:57:58.784Z,19.30
2019-06-07T23:00:29.081Z,19.30
2019-06-07T23:02:57.534Z,19.30
2019-06-07T23:05:25.962Z,19.20
2019-06-07T23:07:54.400Z,19.10
2019-06-07T23:10:23.440Z,19.10
2019-06-07T23:12:51.937Z,19.00
2019-06-07T23:15:20.790Z,19.00
2019-06-07T23:17:49.584Z,19.00
2019-06-07T23:20:20.024Z,19.00
2019-06-07T23:22:48.683Z,18.90
2019-06-07T23:25:20.854Z,19.00
2019-06-07T23:27:47.554Z,19.00
2019-06-07T23:30:16.746Z,19.00
2019-06-07T23:32:45.374Z,18.90
2019-06-07T23:35:14.833Z,19.10
2019-06-07T23:37:43.522Z,19.10
2019-06-07T23:40:13.127Z,19.10
2019-06-07T23:42:41.834Z,19.00
2019-06-07T23:45:12.085Z,19.00
2019-06-07T23:47:40.894Z,18.80
2019-06-07T23:50:09.686Z,18.80
2019-06-07T23:52:38.229Z,18.90
2019-06-07T23:55:08.848Z,18.80
2019-06-07T23:57:37.446Z,18.80
